עמוד ראשי
METAR-TAF:

METAR-TAF

שדות תעופה :

Noorvik, אלסקה, ארצות הברית

קו רוחב: 66-49-03N, קו אורך: 161-01-20W, גובה: 17מטר

תצפית מזג אוויר נוכחית

הדו"ח נערך לפני 1 שעות ו 7דקות, בשעה 16:56 UTC
רוח 6קשר מכיוון מערב/צפון-מערב
טמפרטורת 9 צלסיוס
לחות 71%
לחץ 1026 hPa
ראות: 16.1קילומטר
שמיים נקיים

METAR: PFNO 151656Z AUTO 30006KT 10SM CLR 09/04 A3030 RMK AO2 SLP342 T00890039 $

זמן: 10:03 (18:03 UTC)


TAF: חסר

תצפיות ותחזיות מזג אוויר לגבי יותר מ- 4,000 שדות תעופה ברחבי העולם. דוחות METAR ו- TAF.

התחנות הזמינות מסומנות בנקודות צהובות ואדומות על גבי המפה.

העבר את העכבר לנקודה הצבעונית על מנת לראות את שם התחנה.

לאחר מכן, לחץ כדי לראות את תוכן ואת תחזיות מזג האוויר.

כדי לשנות את המפה: לחץ על הכפתורים הירוקים עם הפלוס השחור כדי להתקרב; על הכפתור הירוק עם המקף כדי להתרחק; או בחיצים הירוקים למפות סמוכות.


METAR-TAF: